createdAt,value
2018-06-18T00:00:09.901Z,101049.12
2018-06-18T00:02:38.619Z,101054.54
2018-06-18T00:05:09.482Z,101049.22
2018-06-18T00:07:38.007Z,101052.09
2018-06-18T00:10:07.006Z,101051.23
2018-06-18T00:12:35.514Z,101047.63
2018-06-18T00:15:04.252Z,101049.22
2018-06-18T00:17:33.364Z,101047.41
2018-06-18T00:20:03.561Z,101049.12
2018-06-18T00:22:32.030Z,101052.14
2018-06-18T00:25:01.027Z,101050.68
2018-06-18T00:27:31.088Z,101048.75
2018-06-18T00:29:59.545Z,101060.00
2018-06-18T00:32:31.113Z,101048.36
2018-06-18T00:34:59.721Z,101054.63
2018-06-18T00:37:29.442Z,101058.53
2018-06-18T00:39:57.926Z,101050.55
2018-06-18T00:42:26.420Z,101051.88
2018-06-18T00:44:55.321Z,101062.66
2018-06-18T00:47:23.786Z,101053.47
2018-06-18T00:49:59.154Z,101070.59
2018-06-18T00:52:28.095Z,101073.64
2018-06-18T00:54:56.648Z,101073.77
2018-06-18T00:57:25.194Z,101071.46
2018-06-18T00:59:54.058Z,101064.33
2018-06-18T01:02:22.565Z,101070.33
2018-06-18T01:04:51.335Z,101071.53
2018-06-18T01:07:20.296Z,101070.47
2018-06-18T01:09:48.778Z,101074.37
2018-06-18T01:12:17.521Z,101078.43
2018-06-18T01:14:46.429Z,101063.73
2018-06-18T01:17:14.898Z,101056.97
2018-06-18T01:19:43.445Z,101061.22
2018-06-18T01:22:14.590Z,101065.28
2018-06-18T01:24:48.698Z,101063.86
2018-06-18T01:27:17.894Z,101062.16
2018-06-18T01:29:46.438Z,101066.66
2018-06-18T01:32:14.932Z,101071.52
2018-06-18T01:34:50.342Z,101076.64
2018-06-18T01:37:18.985Z,101079.64
2018-06-18T01:39:47.510Z,101084.31
2018-06-18T01:42:16.695Z,101073.58
2018-06-18T01:44:45.167Z,101073.84
2018-06-18T01:47:13.726Z,101069.47
2018-06-18T01:49:42.710Z,101072.86
2018-06-18T01:52:16.262Z,101073.84
2018-06-18T01:54:44.806Z,101075.05
2018-06-18T01:57:13.307Z,101070.67
2018-06-18T01:59:42.066Z,101070.45
2018-06-18T02:02:16.258Z,101067.33
2018-06-18T02:04:44.769Z,101062.16
2018-06-18T02:07:14.268Z,101063.02
2018-06-18T02:09:42.883Z,101065.93
2018-06-18T02:12:11.371Z,101071.34
2018-06-18T02:14:41.358Z,101064.09
2018-06-18T02:17:15.398Z,101064.73
2018-06-18T02:19:43.887Z,101064.95
2018-06-18T02:22:17.003Z,101060.61
2018-06-18T02:24:45.520Z,101061.94
2018-06-18T02:27:17.418Z,101062.42
2018-06-18T02:29:52.046Z,101069.69
2018-06-18T02:32:25.982Z,101062.94
2018-06-18T02:35:00.068Z,101057.70
2018-06-18T02:37:35.569Z,101042.52
2018-06-18T02:42:44.612Z,101037.63
2018-06-18T02:45:13.989Z,101050.44
2018-06-18T02:47:42.454Z,101048.56
2018-06-18T02:50:10.946Z,101046.97
2018-06-18T02:52:39.932Z,101044.97
2018-06-18T02:55:08.450Z,101043.41
2018-06-18T02:57:38.848Z,101055.85
2018-06-18T03:00:07.900Z,101063.83
2018-06-18T03:02:36.407Z,101075.86
2018-06-18T03:05:05.860Z,101077.64
2018-06-18T03:07:34.718Z,101077.15
2018-06-18T03:10:03.897Z,101081.49
2018-06-18T03:12:32.431Z,101080.28
2018-06-18T03:15:01.457Z,101088.41
2018-06-18T03:17:30.270Z,101093.00
2018-06-18T03:20:08.105Z,101105.62
2018-06-18T03:22:42.171Z,101097.64
2018-06-18T03:25:15.875Z,101098.14
2018-06-18T03:27:53.046Z,101093.41
2018-06-18T03:30:25.527Z,101094.88
2018-06-18T03:32:54.014Z,101101.77
2018-06-18T03:35:22.506Z,101100.39
2018-06-18T03:37:52.306Z,101100.06
2018-06-18T03:40:20.794Z,101100.53
2018-06-18T03:42:49.268Z,101093.67
2018-06-18T03:45:23.798Z,101099.48
2018-06-18T03:47:57.498Z,101089.95
2018-06-18T03:50:26.021Z,101098.68
2018-06-18T03:52:55.554Z,101094.81
2018-06-18T03:55:40.338Z,101089.38
2018-06-18T03:58:09.734Z,101092.77
2018-06-18T04:00:54.406Z,101097.23
2018-06-18T04:06:07.371Z,101094.02
2018-06-18T04:08:35.987Z,101096.83
2018-06-18T04:11:09.826Z,101090.94
2018-06-18T04:13:38.803Z,101087.56
2018-06-18T04:16:07.398Z,101083.23
2018-06-18T04:18:40.378Z,101091.34
2018-06-18T04:21:09.494Z,101096.06
2018-06-18T04:23:46.867Z,101099.13
2018-06-18T04:26:15.413Z,101096.80
2018-06-18T04:28:51.434Z,101097.73
2018-06-18T04:31:19.997Z,101092.27
2018-06-18T04:35:04.807Z,101086.78
2018-06-18T04:37:35.578Z,101092.84
2018-06-18T04:40:04.914Z,101090.81
2018-06-18T04:42:39.474Z,101106.05
2018-06-18T04:45:13.404Z,101105.27
2018-06-18T04:47:49.007Z,101106.33
2018-06-18T04:50:22.814Z,101100.99
2018-06-18T04:52:52.076Z,101099.61
2018-06-18T04:55:31.404Z,101092.91
2018-06-18T04:57:59.967Z,101092.15
2018-06-18T05:00:55.814Z,101092.47
2018-06-18T05:03:24.503Z,101087.58
2018-06-18T05:05:54.550Z,101094.87
2018-06-18T05:08:37.091Z,101093.20
2018-06-18T05:11:06.202Z,101089.94
2018-06-18T05:13:35.772Z,101102.61
2018-06-18T05:16:06.574Z,101104.26
2018-06-18T05:18:35.074Z,101101.78
2018-06-18T05:21:03.802Z,101102.06
2018-06-18T05:23:33.718Z,101106.58
2018-06-18T05:26:02.974Z,101105.29
2018-06-18T05:28:32.200Z,101108.17
2018-06-18T05:31:02.229Z,101107.45
2018-06-18T05:33:31.122Z,101106.88
2018-06-18T05:36:05.089Z,101107.86
2018-06-18T05:38:36.942Z,101108.69
2018-06-18T05:41:06.356Z,101111.09
2018-06-18T05:43:35.520Z,101117.41
2018-06-18T05:46:13.034Z,101118.47
2018-06-18T05:48:44.882Z,101132.25
2018-06-18T05:51:13.457Z,101124.36
2018-06-18T05:53:43.776Z,101124.56
2018-06-18T05:56:12.368Z,101131.80
2018-06-18T05:58:41.510Z,101129.75
2018-06-18T06:01:10.103Z,101138.60
2018-06-18T06:03:38.590Z,101136.45
2018-06-18T06:06:07.723Z,101129.34
2018-06-18T06:08:36.242Z,101133.11
2018-06-18T06:11:04.827Z,101129.32
2018-06-18T06:13:33.603Z,101136.51
2018-06-18T06:16:04.306Z,101133.59
2018-06-18T06:18:32.914Z,101144.49
2018-06-18T06:21:04.404Z,101145.65
2018-06-18T06:23:36.671Z,101134.58
2018-06-18T06:26:06.091Z,101129.99
2018-06-18T06:28:35.048Z,101126.29
2018-06-18T06:31:15.092Z,101122.58
2018-06-18T06:33:44.134Z,101128.42
2018-06-18T06:38:53.126Z,101132.30
2018-06-18T06:41:24.451Z,101134.38
2018-06-18T06:43:53.473Z,101137.16
2018-06-18T06:46:21.990Z,101132.42
2018-06-18T06:48:50.573Z,101139.58
2018-06-18T06:51:21.358Z,101143.11
2018-06-18T06:53:50.151Z,101150.61
2018-06-18T06:56:18.660Z,101149.05
2018-06-18T06:58:47.633Z,101151.71
2018-06-18T07:01:16.164Z,101158.02
2018-06-18T07:03:46.410Z,101155.33
2018-06-18T07:06:17.965Z,101159.94
2018-06-18T07:08:47.977Z,101161.16
2018-06-18T07:11:20.043Z,101166.48
2018-06-18T07:13:49.049Z,101164.80
2018-06-18T07:16:18.714Z,101166.59
2018-06-18T07:18:48.601Z,101165.73
2018-06-18T07:21:17.537Z,101164.39
2018-06-18T07:23:46.100Z,101166.48
2018-06-18T07:26:14.594Z,101165.27
2018-06-18T07:28:44.197Z,101160.08
2018-06-18T07:31:18.328Z,101172.30
2018-06-18T07:33:46.830Z,101166.98
2018-06-18T07:36:17.747Z,101168.30
2018-06-18T07:38:46.340Z,101166.48
2018-06-18T07:41:14.886Z,101173.23
2018-06-18T07:43:44.708Z,101167.51
2018-06-18T07:46:14.882Z,101165.05
2018-06-18T07:48:44.716Z,101169.30
2018-06-18T07:51:13.511Z,101167.48
2018-06-18T07:53:42.262Z,101165.50
2018-06-18T07:56:11.979Z,101160.84
2018-06-18T07:58:41.803Z,101155.59
2018-06-18T08:01:10.313Z,101154.74
2018-06-18T08:03:38.898Z,101146.53
2018-06-18T08:06:07.786Z,101151.92
2018-06-18T08:08:36.326Z,101157.32
2018-06-18T08:11:05.876Z,101161.19
2018-06-18T08:13:34.727Z,101159.45
2018-06-18T08:16:04.399Z,101152.83
2018-06-18T08:18:32.967Z,101159.09
2018-06-18T08:21:01.868Z,101157.94
2018-06-18T08:23:30.467Z,101150.78
2018-06-18T08:25:59.454Z,101146.53
2018-06-18T08:28:28.276Z,101156.94
2018-06-18T08:30:56.935Z,101161.89
2018-06-18T08:33:25.660Z,101161.70
2018-06-18T08:35:54.539Z,101158.68
2018-06-18T08:38:23.082Z,101160.56
2018-06-18T08:40:51.619Z,101161.59
2018-06-18T08:43:20.481Z,101159.20
2018-06-18T08:45:49.339Z,101162.28
2018-06-18T08:48:27.939Z,101166.23
2018-06-18T08:51:02.573Z,101170.43
2018-06-18T08:53:36.244Z,101160.16
2018-06-18T08:56:11.114Z,101167.08
2018-06-18T08:58:47.158Z,101167.45
2018-06-18T09:01:21.411Z,101161.26
2018-06-18T09:03:52.658Z,101158.41
2018-06-18T09:06:21.446Z,101159.70
2018-06-18T09:08:56.752Z,101161.43
2018-06-18T09:11:25.682Z,101164.55
2018-06-18T09:13:54.345Z,101161.66
2018-06-18T09:16:23.170Z,101158.48
2018-06-18T09:18:51.866Z,101158.72
2018-06-18T09:21:20.393Z,101151.38
2018-06-18T09:23:49.531Z,101149.48
2018-06-18T09:26:20.668Z,101137.99
2018-06-18T09:28:49.245Z,101141.38
2018-06-18T09:31:18.037Z,101139.03
2018-06-18T09:33:47.034Z,101137.20
2018-06-18T09:36:15.505Z,101131.27
2018-06-18T09:38:45.162Z,101126.16
2018-06-18T09:43:47.035Z,101135.59
2018-06-18T09:46:15.598Z,101136.58
2018-06-18T09:48:52.719Z,101132.59
2018-06-18T09:51:35.159Z,101127.89
2018-06-18T09:54:18.378Z,101136.33
2018-06-18T09:56:52.389Z,101137.89
2018-06-18T09:59:39.784Z,101133.06
2018-06-18T10:02:11.341Z,101136.56
2018-06-18T10:04:39.863Z,101137.95
2018-06-18T10:07:08.345Z,101139.03
2018-06-18T10:09:37.288Z,101144.95
2018-06-18T10:12:05.837Z,101144.23
2018-06-18T10:14:40.142Z,101138.54
2018-06-18T10:17:08.675Z,101131.57
2018-06-18T10:19:40.824Z,101136.97
2018-06-18T10:22:09.768Z,101135.52
2018-06-18T10:24:38.311Z,101130.77
2018-06-18T10:27:13.883Z,101132.34
2018-06-18T10:29:42.978Z,101135.80
2018-06-18T10:32:16.614Z,101141.39
2018-06-18T10:34:52.742Z,101139.81
2018-06-18T10:37:26.783Z,101134.94
2018-06-18T10:42:02.902Z,101135.26
2018-06-18T10:44:32.030Z,101137.31
2018-06-18T10:47:00.531Z,101144.31
2018-06-18T10:49:29.112Z,101142.34
2018-06-18T10:52:04.871Z,101150.25
2018-06-18T10:54:33.467Z,101144.84
2018-06-18T10:57:04.160Z,101157.73
2018-06-18T10:59:32.870Z,101150.78
2018-06-18T11:02:01.765Z,101138.37
2018-06-18T11:04:36.395Z,101131.28
2018-06-18T11:07:05.271Z,101129.58
2018-06-18T11:09:36.417Z,101131.47
2018-06-18T11:12:06.661Z,101139.94
2018-06-18T11:14:35.474Z,101140.45
2018-06-18T11:17:09.875Z,101138.96
2018-06-18T11:19:43.602Z,101141.84
2018-06-18T11:22:14.129Z,101136.55
2018-06-18T11:24:48.649Z,101132.44
2018-06-18T11:27:17.447Z,101130.83
2018-06-18T11:29:51.522Z,101124.28
2018-06-18T11:32:20.113Z,101118.97
2018-06-18T11:34:48.650Z,101115.44
2018-06-18T11:37:17.460Z,101118.16
2018-06-18T11:39:51.430Z,101119.69
2018-06-18T11:42:20.013Z,101121.76
2018-06-18T11:44:48.919Z,101119.09
2018-06-18T11:47:17.555Z,101119.39
2018-06-18T11:49:46.174Z,101122.38
2018-06-18T11:52:18.100Z,101128.47
2018-06-18T11:54:46.627Z,101121.09
2018-06-18T11:57:15.139Z,101125.39
2018-06-18T11:59:50.158Z,101124.05
2018-06-18T12:02:24.017Z,101123.32
2018-06-18T12:04:57.809Z,101129.63
2018-06-18T12:07:31.653Z,101126.46
2018-06-18T12:10:00.292Z,101129.56
2018-06-18T12:12:35.116Z,101126.81
2018-06-18T12:15:04.111Z,101126.81
2018-06-18T12:17:32.693Z,101128.16
2018-06-18T12:20:03.242Z,101125.22
2018-06-18T12:22:31.799Z,101123.98
2018-06-18T12:25:01.161Z,101121.11
2018-06-18T12:27:32.218Z,101121.39
2018-06-18T12:30:00.886Z,101121.91
2018-06-18T12:32:29.404Z,101113.72
2018-06-18T12:34:59.280Z,101117.09
2018-06-18T12:37:27.776Z,101120.60
2018-06-18T12:39:59.719Z,101124.42
2018-06-18T12:42:28.485Z,101115.02
2018-06-18T12:45:03.532Z,101121.20
2018-06-18T12:47:37.218Z,101120.27
2018-06-18T12:50:12.300Z,101124.18
2018-06-18T12:52:49.255Z,101119.35
2018-06-18T12:55:26.463Z,101124.36
2018-06-18T12:57:55.680Z,101123.79
2018-06-18T13:00:28.703Z,101127.06
2018-06-18T13:03:03.982Z,101119.99
2018-06-18T13:05:33.368Z,101120.04
2018-06-18T13:08:05.453Z,101122.35
2018-06-18T13:10:34.122Z,101114.47
2018-06-18T13:13:03.205Z,101124.41
2018-06-18T13:15:34.225Z,101124.23
2018-06-18T13:18:03.296Z,101129.22
2018-06-18T13:20:32.109Z,101124.11
2018-06-18T13:23:01.052Z,101126.80
2018-06-18T13:25:29.623Z,101122.42
2018-06-18T13:28:05.750Z,101131.17
2018-06-18T13:30:42.325Z,101126.44
2018-06-18T13:33:11.774Z,101123.25
2018-06-18T13:35:40.372Z,101118.20
2018-06-18T13:38:14.070Z,101118.75
2018-06-18T13:40:50.715Z,101109.83
2018-06-18T13:43:26.068Z,101111.96
2018-06-18T13:46:00.424Z,101111.88
2018-06-18T13:48:34.215Z,101123.75
2018-06-18T13:51:02.883Z,101125.97
2018-06-18T13:53:38.590Z,101121.22
2018-06-18T13:56:07.197Z,101116.65
2018-06-18T13:58:35.935Z,101121.53
2018-06-18T14:01:05.157Z,101115.55
2018-06-18T14:03:33.707Z,101124.80
2018-06-18T14:06:05.110Z,101119.14
2018-06-18T14:08:39.428Z,101118.02
2018-06-18T14:11:08.071Z,101118.13
2018-06-18T14:13:37.993Z,101118.62
2018-06-18T14:16:06.599Z,101110.06
2018-06-18T14:18:35.110Z,101127.86
2018-06-18T14:21:04.152Z,101121.59
2018-06-18T14:23:35.611Z,101103.78
2018-06-18T14:26:05.410Z,101110.98
2018-06-18T14:28:34.242Z,101118.63
2018-06-18T14:31:07.853Z,101119.59
2018-06-18T14:33:41.480Z,101114.25
2018-06-18T14:36:15.680Z,101118.81
2018-06-18T14:38:49.667Z,101106.45
2018-06-18T14:41:18.574Z,101110.23
2018-06-18T14:43:52.159Z,101107.98
2018-06-18T14:46:20.816Z,101112.36
2018-06-18T14:48:55.313Z,101110.43
2018-06-18T14:51:23.935Z,101106.72
2018-06-18T14:53:52.555Z,101104.50
2018-06-18T14:56:29.818Z,101110.57
2018-06-18T14:59:07.813Z,101111.84
2018-06-18T15:01:36.743Z,101107.94
2018-06-18T15:04:14.322Z,101110.45
2018-06-18T15:06:44.121Z,101104.39
2018-06-18T15:09:13.274Z,101110.27
2018-06-18T15:11:42.485Z,101114.47
2018-06-18T15:14:11.438Z,101105.69
2018-06-18T15:16:39.959Z,101105.72
2018-06-18T15:19:08.774Z,101102.17
2018-06-18T15:21:40.846Z,101105.55
2018-06-18T15:24:17.117Z,101107.58
2018-06-18T15:26:47.138Z,101104.91
2018-06-18T15:29:19.838Z,101107.11
2018-06-18T15:31:48.772Z,101110.30
2018-06-18T15:34:17.771Z,101112.66
2018-06-18T15:36:46.731Z,101099.98
2018-06-18T15:39:19.111Z,101099.30
2018-06-18T15:41:48.082Z,101097.97
2018-06-18T15:44:16.746Z,101097.31
2018-06-18T15:46:45.949Z,101098.64
2018-06-18T15:49:14.821Z,101098.14
2018-06-18T15:51:43.619Z,101109.28
2018-06-18T15:54:12.206Z,101100.45
2018-06-18T15:56:42.266Z,101095.56
2018-06-18T15:59:10.741Z,101092.30
2018-06-18T16:01:39.269Z,101094.98
2018-06-18T16:04:08.095Z,101111.69
2018-06-18T16:07:06.779Z,101102.95
2018-06-18T16:09:43.144Z,101107.89
2018-06-18T16:12:11.755Z,101102.00
2018-06-18T16:14:41.435Z,101105.13
2018-06-18T16:20:05.174Z,101097.82
2018-06-18T16:22:34.020Z,101096.53
2018-06-18T16:25:06.898Z,101094.52
2018-06-18T16:27:35.316Z,101095.44
2018-06-18T16:30:13.606Z,101094.35
2018-06-18T16:32:53.015Z,101099.73
2018-06-18T16:35:22.194Z,101105.10
2018-06-18T16:37:50.746Z,101094.98
2018-06-18T16:40:19.318Z,101109.48
2018-06-18T16:42:48.123Z,101111.97
2018-06-18T16:45:20.702Z,101107.50
2018-06-18T16:47:49.338Z,101105.14
2018-06-18T16:50:18.160Z,101108.64
2018-06-18T16:52:46.593Z,101105.63
2018-06-18T16:55:18.731Z,101103.55
2018-06-18T16:57:47.531Z,101097.33
2018-06-18T17:00:16.766Z,101098.83
2018-06-18T17:02:45.805Z,101103.09
2018-06-18T17:05:14.296Z,101099.73
2018-06-18T17:07:43.030Z,101089.36
2018-06-18T17:10:11.585Z,101095.37
2018-06-18T17:12:42.065Z,101093.78
2018-06-18T17:15:10.852Z,101088.24
2018-06-18T17:17:39.364Z,101091.13
2018-06-18T17:20:11.412Z,101088.66
2018-06-18T17:22:40.265Z,101087.07
2018-06-18T17:25:08.915Z,101089.19
2018-06-18T17:27:37.382Z,101081.03
2018-06-18T17:30:06.215Z,101088.28
2018-06-18T17:32:45.527Z,101087.56
2018-06-18T17:35:14.944Z,101091.57
2018-06-18T17:37:44.382Z,101090.69
2018-06-18T17:40:12.880Z,101089.24
2018-06-18T17:42:41.616Z,101085.08
2018-06-18T17:45:10.600Z,101091.30
2018-06-18T17:47:39.493Z,101090.60
2018-06-18T17:50:09.968Z,101088.34
2018-06-18T17:52:38.921Z,101077.47
2018-06-18T17:55:14.988Z,101078.52
2018-06-18T17:57:43.706Z,101083.25
2018-06-18T18:00:13.031Z,101078.06
2018-06-18T18:02:42.489Z,101073.48
2018-06-18T18:05:11.114Z,101073.97
2018-06-18T18:07:40.010Z,101075.83
2018-06-18T18:10:08.665Z,101077.44
2018-06-18T18:12:37.158Z,101076.70
2018-06-18T18:15:09.646Z,101075.83
2018-06-18T18:17:38.157Z,101074.59
2018-06-18T18:20:10.805Z,101079.74
2018-06-18T18:22:42.162Z,101078.72
2018-06-18T18:25:10.696Z,101072.23
2018-06-18T18:27:39.206Z,101073.20
2018-06-18T18:30:08.400Z,101080.18
2018-06-18T18:39:22.787Z,101089.02
2018-06-18T18:41:54.844Z,101082.90
2018-06-18T18:44:23.404Z,101090.78
2018-06-18T18:46:53.629Z,101091.33
2018-06-18T18:49:22.601Z,101091.85
2018-06-18T18:51:51.192Z,101092.77
2018-06-18T18:54:34.492Z,101093.97
2018-06-18T18:58:12.812Z,101091.94
2018-06-18T19:00:41.559Z,101088.44
2018-06-18T19:03:10.478Z,101088.44
2018-06-18T19:05:38.993Z,101089.98
2018-06-18T19:08:08.327Z,101091.81
2018-06-18T19:10:38.622Z,101087.98
2018-06-18T19:13:18.136Z,101095.81
2018-06-18T19:15:54.114Z,101098.22
2018-06-18T19:18:22.826Z,101101.08
2018-06-18T19:20:56.942Z,101091.85
2018-06-18T19:23:32.377Z,101095.89
2018-06-18T19:26:01.095Z,101106.12
2018-06-18T19:28:29.637Z,101105.83
2018-06-18T19:31:08.740Z,101105.13
2018-06-18T19:34:14.438Z,101104.70
2018-06-18T19:36:46.834Z,101111.11
2018-06-18T19:39:16.462Z,101115.84
2018-06-18T19:41:45.317Z,101110.48
2018-06-18T19:44:14.363Z,101120.16
2018-06-18T19:47:07.611Z,101121.61
2018-06-18T19:49:39.983Z,101123.87
2018-06-18T19:52:08.775Z,101127.44
2018-06-18T19:54:40.643Z,101134.27
2018-06-18T19:57:09.619Z,101130.92
2018-06-18T19:59:38.101Z,101129.64
2018-06-18T20:04:46.507Z,101141.34
2018-06-18T20:07:15.166Z,101143.28
2018-06-18T20:09:43.812Z,101145.67
2018-06-18T20:12:12.702Z,101145.62
2018-06-18T20:17:15.345Z,101152.79
2018-06-18T20:19:44.660Z,101160.09
2018-06-18T20:22:13.281Z,101161.86
2018-06-18T20:24:43.818Z,101169.83
2018-06-18T20:27:12.603Z,101166.53
2018-06-18T20:29:46.978Z,101167.50
2018-06-18T20:32:16.177Z,101170.31
2018-06-18T20:34:45.058Z,101166.88
2018-06-18T20:37:13.658Z,101158.77
2018-06-18T20:39:42.590Z,101171.66
2018-06-18T20:42:11.898Z,101168.33
2018-06-18T20:44:40.416Z,101160.93
2018-06-18T20:47:09.372Z,101164.52
2018-06-18T20:49:43.964Z,101168.58
2018-06-18T20:52:12.627Z,101173.70
2018-06-18T20:54:41.800Z,101171.31
2018-06-18T20:57:10.398Z,101172.11
2018-06-18T20:59:38.921Z,101177.32
2018-06-18T21:02:07.966Z,101180.22
2018-06-18T21:04:36.596Z,101183.44
2018-06-18T21:07:06.066Z,101181.02
2018-06-18T21:09:34.926Z,101181.02
2018-06-18T21:12:04.566Z,101189.43
2018-06-18T21:14:33.076Z,101189.32
2018-06-18T21:17:03.060Z,101187.47
2018-06-18T21:19:32.394Z,101192.91
2018-06-18T21:22:11.884Z,101195.30
2018-06-18T21:24:41.328Z,101188.88
2018-06-18T21:27:09.947Z,101189.84
2018-06-18T21:29:38.524Z,101182.92
2018-06-18T21:32:07.514Z,101185.02
2018-06-18T21:34:41.713Z,101194.52
2018-06-18T21:37:10.262Z,101185.89
2018-06-18T21:39:39.180Z,101186.41
2018-06-18T21:42:07.727Z,101190.42
2018-06-18T21:44:49.757Z,101194.34
2018-06-18T21:47:18.554Z,101196.64
2018-06-18T21:49:48.261Z,101185.23
2018-06-18T21:52:23.421Z,101184.61
2018-06-18T21:54:52.289Z,101182.16
2018-06-18T21:57:20.915Z,101186.13
2018-06-18T21:59:49.735Z,101173.61
2018-06-18T22:02:18.854Z,101174.38
2018-06-18T22:04:49.626Z,101181.22
2018-06-18T22:07:19.802Z,101172.86
2018-06-18T22:09:48.749Z,101178.55
2018-06-18T22:12:28.513Z,101175.69
2018-06-18T22:14:57.591Z,101174.34
2018-06-18T22:17:26.276Z,101181.70
2018-06-18T22:19:59.767Z,101176.73
2018-06-18T22:22:28.798Z,101175.40
2018-06-18T22:24:57.379Z,101171.63
2018-06-18T22:27:25.961Z,101180.27
2018-06-18T22:29:57.364Z,101175.55
2018-06-18T22:32:25.929Z,101174.97
2018-06-18T22:34:58.467Z,101172.53
2018-06-18T22:37:26.964Z,101173.63
2018-06-18T22:39:56.981Z,101180.89
2018-06-18T22:42:25.505Z,101181.27
2018-06-18T22:44:58.352Z,101176.74
2018-06-18T22:47:27.219Z,101173.35
2018-06-18T22:49:55.803Z,101173.11
2018-06-18T22:52:24.341Z,101173.11
2018-06-18T22:54:53.418Z,101179.08
2018-06-18T22:57:22.081Z,101177.59
2018-06-18T22:59:59.771Z,101187.56
2018-06-18T23:02:30.634Z,101190.34
2018-06-18T23:05:04.149Z,101186.19
2018-06-18T23:07:33.146Z,101185.38
2018-06-18T23:12:43.160Z,101179.13
2018-06-18T23:18:45.528Z,101181.80
2018-06-18T23:21:15.000Z,101180.36
2018-06-18T23:23:43.556Z,101185.42
2018-06-18T23:26:12.168Z,101188.19
2018-06-18T23:28:50.699Z,101189.09
2018-06-18T23:31:19.230Z,101195.16
2018-06-18T23:33:52.479Z,101196.78
2018-06-18T23:36:21.648Z,101197.02
2018-06-18T23:38:53.922Z,101203.56
2018-06-18T23:41:23.937Z,101203.08
2018-06-18T23:43:56.048Z,101199.43
2018-06-18T23:46:24.530Z,101206.59
2018-06-18T23:48:54.948Z,101206.69
2018-06-18T23:51:23.432Z,101207.10
2018-06-18T23:53:51.978Z,101205.42
2018-06-18T23:56:21.970Z,101199.28
2018-06-18T23:58:50.666Z,101200.85
